createdAt,value
2017-09-22T00:01:58.813Z,10.64
2017-09-22T00:04:25.416Z,10.74
2017-09-22T00:06:51.883Z,10.80
2017-09-22T00:09:19.307Z,10.72
2017-09-22T00:11:47.940Z,10.75
2017-09-22T00:14:15.413Z,10.77
2017-09-22T00:16:43.052Z,10.52
2017-09-22T00:31:27.848Z,9.68
2017-09-22T00:33:54.576Z,9.71
2017-09-22T00:36:21.051Z,9.85
2017-09-22T00:38:47.674Z,9.76
2017-09-22T00:41:14.162Z,9.67
2017-09-22T00:43:41.101Z,9.57
2017-09-22T00:46:08.401Z,9.56
2017-09-22T00:48:35.223Z,9.64
2017-09-22T00:51:01.883Z,9.69
2017-09-22T00:53:28.464Z,9.72
2017-09-22T00:55:56.936Z,9.70
2017-09-22T00:58:23.547Z,9.71
2017-09-22T01:01:13.946Z,9.90
2017-09-22T01:03:42.519Z,10.23
2017-09-22T01:06:09.035Z,10.33
2017-09-22T01:08:35.571Z,10.33
2017-09-22T01:11:02.007Z,10.32
2017-09-22T01:13:28.763Z,10.21
2017-09-22T01:15:55.448Z,10.27
2017-09-22T01:18:21.936Z,10.06
2017-09-22T01:20:49.754Z,10.01
2017-09-22T01:23:18.319Z,9.91
2017-09-22T01:28:44.719Z,9.82
2017-09-22T01:31:11.348Z,9.78
2017-09-22T01:33:38.259Z,9.72
2017-09-22T01:36:05.973Z,9.51
2017-09-22T01:38:33.309Z,9.36
2017-09-22T01:41:00.175Z,9.46
2017-09-22T01:43:26.724Z,9.58
2017-09-22T01:45:53.356Z,9.32
2017-09-22T01:48:20.009Z,9.31
2017-09-22T01:50:46.800Z,9.08
2017-09-22T01:53:13.484Z,9.12
2017-09-22T01:55:42.297Z,9.04
2017-09-22T01:58:09.664Z,9.08
2017-09-22T02:00:44.342Z,9.30
2017-09-22T02:03:12.244Z,9.49
2017-09-22T02:05:39.731Z,9.35
2017-09-22T02:08:07.450Z,9.26
2017-09-22T02:10:34.024Z,9.21
2017-09-22T02:13:00.921Z,9.23
2017-09-22T02:15:28.175Z,9.28
2017-09-22T02:20:36.011Z,9.29
2017-09-22T02:23:02.656Z,9.31
2017-09-22T02:25:31.217Z,9.33
2017-09-22T02:27:57.892Z,9.47
2017-09-22T02:30:24.728Z,9.54
2017-09-22T02:32:51.145Z,9.46
2017-09-22T02:35:18.520Z,9.38
2017-09-22T02:37:45.276Z,9.20
2017-09-22T02:40:12.064Z,9.53
2017-09-22T02:42:40.101Z,9.66
2017-09-22T02:48:00.118Z,9.53
2017-09-22T02:50:26.900Z,9.48
2017-09-22T02:52:54.266Z,9.49
2017-09-22T02:55:23.884Z,9.51
2017-09-22T02:57:50.306Z,9.46
2017-09-22T03:00:17.247Z,9.49
2017-09-22T03:02:45.805Z,9.36
2017-09-22T03:05:12.448Z,9.14
2017-09-22T03:07:40.004Z,9.03
2017-09-22T03:10:06.684Z,9.07
2017-09-22T03:12:33.371Z,8.98
2017-09-22T03:15:01.148Z,8.95
2017-09-22T03:17:27.860Z,9.12
2017-09-22T03:19:54.808Z,9.16
2017-09-22T03:22:24.656Z,9.40
2017-09-22T03:24:52.481Z,9.59
2017-09-22T03:27:18.848Z,9.57
2017-09-22T03:29:46.588Z,9.51
2017-09-22T03:35:10.208Z,9.10
2017-09-22T03:37:37.728Z,8.95
2017-09-22T03:40:06.692Z,8.98
2017-09-22T03:42:34.582Z,8.94
2017-09-22T03:45:01.242Z,8.95
2017-09-22T03:47:28.700Z,9.00
2017-09-22T03:49:55.277Z,9.31
2017-09-22T03:52:22.987Z,9.46
2017-09-22T03:54:49.552Z,9.43
2017-09-22T03:57:17.020Z,9.28
2017-09-22T03:59:44.639Z,9.32
2017-09-22T04:02:14.155Z,9.32
2017-09-22T04:04:41.560Z,9.26
2017-09-22T04:07:08.388Z,9.26
2017-09-22T04:12:30.120Z,9.37
2017-09-22T04:14:56.887Z,9.32
2017-09-22T04:17:23.348Z,9.33
2017-09-22T04:19:49.975Z,9.15
2017-09-22T04:22:18.719Z,9.23
2017-09-22T04:24:45.429Z,9.09
2017-09-22T04:27:12.079Z,8.86
2017-09-22T04:29:39.507Z,8.72
2017-09-22T04:32:05.953Z,8.66
2017-09-22T04:34:33.556Z,8.70
2017-09-22T04:37:00.304Z,8.85
2017-09-22T04:39:26.755Z,8.88
2017-09-22T04:41:53.367Z,8.87
2017-09-22T04:44:19.913Z,8.81
2017-09-22T04:46:46.428Z,8.69
2017-09-22T04:49:13.175Z,8.66
2017-09-22T05:03:09.878Z,8.18
2017-09-22T05:05:36.552Z,8.16
2017-09-22T05:08:03.169Z,8.12
2017-09-22T05:10:29.704Z,8.01
2017-09-22T05:12:56.209Z,8.02
2017-09-22T05:15:23.647Z,8.12
2017-09-22T05:17:50.159Z,8.17
2017-09-22T05:20:17.232Z,8.08
2017-09-22T05:22:44.192Z,8.01
2017-09-22T05:25:11.645Z,7.92
2017-09-22T05:27:39.435Z,8.10
2017-09-22T05:30:06.025Z,8.08
2017-09-22T05:32:32.535Z,8.40
2017-09-22T05:34:59.099Z,8.55
2017-09-22T05:37:25.677Z,8.46
2017-09-22T05:39:52.027Z,8.55
2017-09-22T05:42:18.844Z,8.58
2017-09-22T05:44:45.510Z,8.54
2017-09-22T05:47:14.242Z,8.52
2017-09-22T05:49:43.064Z,8.60
2017-09-22T05:52:12.560Z,9.05
2017-09-22T05:54:50.634Z,9.12
2017-09-22T05:57:17.301Z,9.29
2017-09-22T05:59:44.740Z,9.45
2017-09-22T06:02:12.291Z,9.34
2017-09-22T06:04:39.028Z,9.19
2017-09-22T06:07:05.631Z,9.37
2017-09-22T06:09:32.379Z,9.47
2017-09-22T06:11:58.956Z,9.58
2017-09-22T06:14:25.651Z,9.50
2017-09-22T06:16:52.247Z,9.34
2017-09-22T06:19:19.777Z,9.26
2017-09-22T06:21:46.272Z,9.51
2017-09-22T06:24:12.846Z,9.72
2017-09-22T06:26:40.321Z,9.59
2017-09-22T06:29:07.193Z,9.78
2017-09-22T06:31:33.635Z,10.04
2017-09-22T06:34:00.266Z,10.24
2017-09-22T06:36:27.095Z,10.36
2017-09-22T06:38:55.616Z,10.53
2017-09-22T06:41:25.791Z,10.77
2017-09-22T06:43:52.524Z,10.98
2017-09-22T06:46:19.050Z,11.07
2017-09-22T06:48:46.524Z,11.02
2017-09-22T06:51:16.299Z,11.04
2017-09-22T06:53:44.947Z,11.05
2017-09-22T06:56:11.801Z,11.49
2017-09-22T06:58:38.495Z,12.86
2017-09-22T07:01:31.188Z,13.82
2017-09-22T07:03:57.571Z,14.02
2017-09-22T07:06:25.454Z,14.22
2017-09-22T07:14:31.804Z,13.46
2017-09-22T07:27:56.516Z,12.42
2017-09-22T07:30:24.007Z,12.45
2017-09-22T08:17:50.207Z,13.15
2017-09-22T08:20:16.951Z,13.18
2017-09-22T08:22:44.440Z,13.28
2017-09-22T08:25:11.075Z,13.49
2017-09-22T08:27:37.645Z,13.31
2017-09-22T08:30:14.544Z,13.09
2017-09-22T08:32:41.254Z,13.76
2017-09-22T08:38:21.552Z,14.11
2017-09-22T08:40:52.380Z,14.12
2017-09-22T08:43:19.625Z,14.31
2017-09-22T08:45:48.128Z,14.35
2017-09-22T08:48:15.339Z,14.57
2017-09-22T08:50:42.385Z,14.77
2017-09-22T08:56:04.141Z,14.89
2017-09-22T08:58:30.800Z,14.92
2017-09-22T09:00:57.593Z,14.68
2017-09-22T09:03:24.063Z,15.04
2017-09-22T09:08:25.937Z,14.74
2017-09-22T09:10:52.544Z,14.76
2017-09-22T09:13:19.244Z,14.93
2017-09-22T09:15:46.762Z,15.12
2017-09-22T09:18:13.408Z,15.28
2017-09-22T09:20:40.700Z,15.39
2017-09-22T09:23:07.814Z,15.54
2017-09-22T09:25:35.213Z,15.68
2017-09-22T09:28:01.681Z,15.77
2017-09-22T09:30:28.435Z,15.82
2017-09-22T09:32:55.352Z,16.02
2017-09-22T09:35:22.596Z,16.19
2017-09-22T09:37:49.391Z,16.10
2017-09-22T09:40:17.059Z,16.08
2017-09-22T09:42:44.449Z,16.15
2017-09-22T09:45:20.409Z,16.14
2017-09-22T09:47:48.524Z,16.27
2017-09-22T09:50:15.460Z,16.47
2017-09-22T09:52:49.220Z,16.44
2017-09-22T09:55:16.980Z,16.34
2017-09-22T09:57:43.780Z,16.29
2017-09-22T10:00:10.821Z,16.37
2017-09-22T10:02:37.732Z,16.36
2017-09-22T10:41:18.492Z,17.42
2017-09-22T10:43:45.940Z,17.77
2017-09-22T10:46:13.531Z,18.09
2017-09-22T10:51:35.592Z,18.28
2017-09-22T10:54:02.235Z,18.50
2017-09-22T10:56:28.727Z,18.70
2017-09-22T10:59:11.773Z,18.82
2017-09-22T11:01:39.178Z,18.82
2017-09-22T11:04:05.883Z,18.93
2017-09-22T11:06:33.671Z,19.15
2017-09-22T11:09:00.077Z,18.85
2017-09-22T11:11:26.664Z,18.84
2017-09-22T11:13:53.236Z,18.95
2017-09-22T11:16:20.003Z,19.04
2017-09-22T11:27:44.423Z,19.13
2017-09-22T11:30:11.118Z,19.23
2017-09-22T11:32:39.239Z,19.41
2017-09-22T11:35:06.336Z,19.53
2017-09-22T11:37:33.077Z,19.52
2017-09-22T11:40:10.043Z,19.59
2017-09-22T11:42:36.812Z,19.61
2017-09-22T11:45:03.456Z,19.78
2017-09-22T11:47:30.965Z,19.77
2017-09-22T11:50:08.278Z,19.78
2017-09-22T11:52:36.048Z,19.89
2017-09-22T11:55:02.517Z,19.84
2017-09-22T11:57:29.995Z,19.82
2017-09-22T11:59:56.667Z,19.88
2017-09-22T12:02:26.425Z,19.74
2017-09-22T12:04:56.775Z,19.79
2017-09-22T12:07:24.096Z,19.86
2017-09-22T12:09:52.592Z,20.03
2017-09-22T12:12:19.941Z,20.10
2017-09-22T12:17:42.477Z,20.23
2017-09-22T12:20:09.000Z,20.22
2017-09-22T12:22:35.597Z,20.12
2017-09-22T12:27:56.247Z,19.92
2017-09-22T12:30:22.813Z,19.76
2017-09-22T12:32:49.401Z,19.76
2017-09-22T12:35:15.835Z,19.95
2017-09-22T12:37:42.568Z,20.18
2017-09-22T12:40:09.229Z,20.44
2017-09-22T12:42:35.813Z,20.46
2017-09-22T12:45:06.332Z,20.48
2017-09-22T12:47:33.776Z,20.49
2017-09-22T12:50:02.197Z,20.53
2017-09-22T12:52:32.001Z,20.53
2017-09-22T12:54:58.877Z,20.58
2017-09-22T12:57:40.955Z,20.59
2017-09-22T13:00:07.656Z,20.66
2017-09-22T13:02:34.100Z,20.53
2017-09-22T13:05:01.420Z,20.44
2017-09-22T13:07:27.964Z,20.45
2017-09-22T13:09:56.452Z,20.51
2017-09-22T13:12:23.203Z,20.63
2017-09-22T13:14:50.593Z,20.56
2017-09-22T13:17:17.087Z,20.67
2017-09-22T13:19:55.408Z,20.74
2017-09-22T13:22:22.984Z,20.74
2017-09-22T13:24:49.640Z,20.74
2017-09-22T13:27:16.080Z,20.76
2017-09-22T13:29:42.817Z,20.66
2017-09-22T13:32:17.695Z,20.66
2017-09-22T13:34:44.493Z,20.55
2017-09-22T13:42:07.984Z,20.83
2017-09-22T13:44:35.420Z,20.84
2017-09-22T13:47:02.872Z,20.86
2017-09-22T13:49:29.385Z,21.00
2017-09-22T13:51:55.949Z,20.94
2017-09-22T14:05:56.310Z,20.78
2017-09-22T14:08:23.044Z,20.74
2017-09-22T14:10:49.592Z,20.81
2017-09-22T14:13:17.207Z,21.03
2017-09-22T14:24:25.829Z,20.94
2017-09-22T14:26:53.639Z,21.00
2017-09-22T14:29:21.135Z,21.06
2017-09-22T14:31:47.871Z,21.02
2017-09-22T14:34:16.723Z,21.20
2017-09-22T14:36:43.758Z,21.23
2017-09-22T14:42:04.436Z,20.96
2017-09-22T14:44:33.915Z,21.07
2017-09-22T14:47:00.678Z,21.01
2017-09-22T14:52:22.044Z,21.10
2017-09-22T14:54:49.110Z,21.20
2017-09-22T14:57:15.922Z,21.24
2017-09-22T14:59:42.476Z,21.24
2017-09-22T15:02:08.988Z,21.23
2017-09-22T15:04:35.607Z,21.30
2017-09-22T15:07:19.764Z,21.26
2017-09-22T15:09:46.401Z,21.33
2017-09-22T15:12:12.998Z,21.33
2017-09-22T15:14:39.994Z,21.36
2017-09-22T15:17:07.790Z,21.22
2017-09-22T15:19:35.285Z,21.17
2017-09-22T15:24:58.220Z,21.03
2017-09-22T15:27:24.636Z,20.87
2017-09-22T15:29:52.972Z,20.75
2017-09-22T15:32:19.636Z,20.74
2017-09-22T15:34:46.492Z,20.79
2017-09-22T15:37:13.155Z,20.74
2017-09-22T15:39:39.866Z,20.67
2017-09-22T15:42:06.349Z,20.58
2017-09-22T15:44:32.965Z,20.77
2017-09-22T15:46:59.397Z,20.61
2017-09-22T15:49:26.060Z,20.40
2017-09-22T15:51:52.460Z,20.39
2017-09-22T15:54:23.307Z,20.18
2017-09-22T15:56:50.031Z,19.99
2017-09-22T16:02:11.079Z,20.05
2017-09-22T16:04:37.855Z,19.89
2017-09-22T16:10:04.172Z,20.09
2017-09-22T16:12:30.899Z,20.04
2017-09-22T16:14:57.428Z,19.96
2017-09-22T16:17:23.958Z,19.77
2017-09-22T16:24:19.259Z,19.52
2017-09-22T16:26:46.808Z,19.37
2017-09-22T16:29:13.331Z,19.30
2017-09-22T16:36:07.108Z,18.96
2017-09-22T16:38:33.643Z,18.99
2017-09-22T16:41:00.972Z,18.96
2017-09-22T16:43:28.312Z,18.77
2017-09-22T16:45:57.664Z,18.60
2017-09-22T16:48:24.340Z,18.42
2017-09-22T16:50:53.896Z,18.33
2017-09-22T16:53:23.393Z,18.10
2017-09-22T16:55:50.773Z,18.03
2017-09-22T16:58:18.268Z,18.10
2017-09-22T17:00:44.717Z,18.13
2017-09-22T17:03:12.285Z,17.93
2017-09-22T17:05:39.940Z,17.74
2017-09-22T17:08:06.544Z,17.54
2017-09-22T17:10:33.364Z,17.53
2017-09-22T17:12:59.893Z,17.40
2017-09-22T17:15:26.365Z,17.33
2017-09-22T17:29:31.476Z,16.99
2017-09-22T17:32:00.480Z,16.85
2017-09-22T17:34:26.999Z,16.83
2017-09-22T17:36:53.595Z,16.90
2017-09-22T17:39:20.076Z,16.95
2017-09-22T17:41:47.564Z,17.01
2017-09-22T17:59:45.767Z,16.45
2017-09-22T18:02:12.352Z,16.51
2017-09-22T18:04:38.830Z,16.67
2017-09-22T18:09:59.685Z,16.37
2017-09-22T18:12:26.266Z,16.37
2017-09-22T18:17:51.717Z,16.49
2017-09-22T18:20:20.760Z,16.75
2017-09-22T18:22:47.500Z,16.50
2017-09-22T18:28:25.891Z,16.19
2017-09-22T18:33:32.644Z,16.15
2017-09-22T18:38:54.175Z,16.01
2017-09-22T18:41:21.642Z,15.92
2017-09-22T18:43:48.188Z,15.91
2017-09-22T18:46:15.609Z,15.84
2017-09-22T18:48:42.176Z,15.76
2017-09-22T18:51:10.597Z,15.74
2017-09-22T18:53:37.380Z,15.69
2017-09-22T18:56:03.919Z,15.66
2017-09-22T18:58:30.443Z,15.66
2017-09-22T19:00:57.016Z,15.75
2017-09-22T19:03:23.464Z,15.70
2017-09-22T19:05:50.039Z,15.71
2017-09-22T19:08:16.751Z,15.99
2017-09-22T19:10:50.504Z,16.11
2017-09-22T19:13:17.394Z,15.90
2017-09-22T19:15:44.256Z,15.66
2017-09-22T19:21:32.644Z,15.36
2017-09-22T19:24:09.710Z,15.43
2017-09-22T19:26:36.377Z,15.18
2017-09-22T19:29:02.882Z,15.24
2017-09-22T19:31:29.547Z,15.13
2017-09-22T19:33:56.315Z,15.13
2017-09-22T19:36:22.825Z,15.21
2017-09-22T19:38:49.352Z,15.32
2017-09-22T19:41:15.934Z,15.53
2017-09-22T19:43:42.422Z,15.34
2017-09-22T19:46:09.009Z,15.31
2017-09-22T19:48:35.555Z,15.45
2017-09-22T19:53:56.540Z,15.49
2017-09-22T19:56:24.343Z,15.55
2017-09-22T19:58:51.702Z,15.50
2017-09-22T20:01:18.284Z,15.31
2017-09-22T20:03:46.416Z,15.18
2017-09-22T20:06:13.556Z,15.04
2017-09-22T20:08:39.968Z,14.92
2017-09-22T20:11:06.531Z,15.02
2017-09-22T20:13:33.221Z,14.89
2017-09-22T20:16:00.659Z,14.78
2017-09-22T20:18:28.108Z,14.73
2017-09-22T20:26:22.337Z,14.90
2017-09-22T20:31:44.878Z,14.94
2017-09-22T20:34:12.386Z,14.85
2017-09-22T20:36:39.804Z,14.76
2017-09-22T20:39:06.404Z,14.70
2017-09-22T20:41:32.890Z,14.65
2017-09-22T20:44:00.348Z,14.51
2017-09-22T20:46:27.840Z,14.32
2017-09-22T20:48:56.303Z,14.54
2017-09-22T20:51:23.912Z,14.66
2017-09-22T20:53:50.560Z,14.66
2017-09-22T20:56:17.000Z,14.64
2017-09-22T21:01:40.500Z,14.57
2017-09-22T21:04:08.055Z,14.41
2017-09-22T21:06:35.687Z,14.37
2017-09-22T21:09:02.352Z,14.06
2017-09-22T21:18:28.748Z,14.08
2017-09-22T21:20:58.376Z,14.07
2017-09-22T21:23:42.406Z,14.16
2017-09-22T21:26:09.852Z,14.01
2017-09-22T21:28:39.525Z,13.77
2017-09-22T21:31:08.150Z,13.81
2017-09-22T21:33:35.654Z,13.64
2017-09-22T21:36:02.340Z,13.90
2017-09-22T21:38:29.680Z,14.08
2017-09-22T21:40:56.117Z,14.16
2017-09-22T21:43:22.745Z,14.16
2017-09-22T21:49:20.332Z,14.00
2017-09-22T21:51:46.952Z,13.98
2017-09-22T21:54:13.608Z,14.00
2017-09-22T21:56:40.144Z,13.93
2017-09-22T21:59:06.899Z,13.97
2017-09-22T22:01:34.252Z,13.94
2017-09-22T22:04:06.831Z,13.96
2017-09-22T22:06:39.671Z,13.97
2017-09-22T22:09:06.568Z,13.94
2017-09-22T22:11:34.038Z,13.93
2017-09-22T22:14:03.867Z,13.91
2017-09-22T22:16:31.664Z,13.84
2017-09-22T22:34:30.796Z,13.30
2017-09-22T22:37:05.224Z,13.35
2017-09-22T22:39:32.255Z,13.40
2017-09-22T22:41:59.647Z,13.47
2017-09-22T22:44:27.525Z,13.37
2017-09-22T22:46:54.299Z,13.43
2017-09-22T22:49:21.055Z,13.50
2017-09-22T22:51:48.004Z,13.54
2017-09-22T22:54:15.328Z,13.46
2017-09-22T22:56:42.016Z,13.27
2017-09-22T22:59:15.904Z,13.20
2017-09-22T23:01:42.619Z,13.13
2017-09-22T23:04:10.692Z,13.01
2017-09-22T23:06:37.356Z,13.15
2017-09-22T23:09:04.108Z,13.26
2017-09-22T23:11:31.564Z,13.03
2017-09-22T23:16:54.863Z,12.65
2017-09-22T23:19:21.757Z,12.52
2017-09-22T23:21:48.658Z,12.49
2017-09-22T23:24:15.335Z,12.84
2017-09-22T23:26:42.076Z,12.64
2017-09-22T23:29:09.636Z,12.47
2017-09-22T23:31:36.409Z,12.57
2017-09-22T23:34:03.213Z,12.60
2017-09-22T23:36:29.954Z,12.51
2017-09-22T23:39:06.680Z,12.45
2017-09-22T23:41:33.192Z,12.57
2017-09-22T23:44:01.849Z,12.38
2017-09-22T23:49:19.798Z,12.58
2017-09-22T23:54:44.568Z,12.59
2017-09-22T23:57:11.528Z,12.59
2017-09-22T23:59:38.035Z,12.62
